Time;durP1;ratioP1;P1;durP2;ratioP2;P2;SDS_P1;SDS_P2;PMS_P1;PMS_P2;Temp;Humidity;BMP_temperature;BMP_pressure;BME280_temperature;BME280_humidity;BME280_pressure;Samples;Min_cycle;Max_cycle;Signal;HPM_P1;HPM_P2
2021/05/26 00:00:54;;;;;;;1.70;0.57;;;7.90;99.90;;;;;;5029098;28;20034;-78
2021/05/26 00:03:20;;;;;;;1.75;0.50;;;7.90;99.90;;;;;;5028869;28;20029;-79
2021/05/26 00:05:47;;;;;;;0.52;0.40;;;7.90;99.90;;;;;;5029996;28;20044;-78
2021/05/26 00:08:13;;;;;;;1.95;0.50;;;7.90;99.90;;;;;;5031755;28;20045;-79
2021/05/26 00:10:39;;;;;;;3.83;0.50;;;7.90;99.90;;;;;;5032869;28;20034;-79
2021/05/26 00:13:05;;;;;;;2.58;0.60;;;7.90;99.90;;;;;;5030690;28;20037;-78
2021/05/26 00:15:30;;;;;;;1.10;0.40;;;8.00;99.90;;;;;;5031348;28;20034;-78
2021/05/26 00:17:56;;;;;;;1.75;0.75;;;8.00;99.90;;;;;;5032807;28;20036;-78
2021/05/26 00:20:22;;;;;;;1.05;0.60;;;8.00;99.90;;;;;;5015676;28;20040;-78
2021/05/26 00:22:47;;;;;;;0.82;0.47;;;8.00;99.90;;;;;;5031909;28;20033;-79
2021/05/26 00:25:14;;;;;;;0.77;0.50;;;8.00;99.90;;;;;;5026157;28;20056;-78
2021/05/26 00:27:39;;;;;;;4.03;0.63;;;7.90;99.90;;;;;;5015086;28;20116;-78
2021/05/26 00:30:06;;;;;;;1.27;0.60;;;7.90;99.90;;;;;;5032831;28;20176;-78
2021/05/26 00:32:31;;;;;;;3.03;0.65;;;7.90;99.90;;;;;;5031840;28;20040;-78
2021/05/26 00:34:57;;;;;;;0.40;0.38;;;7.90;99.90;;;;;;5031153;28;20117;-78
2021/05/26 00:37:23;;;;;;;0.68;0.50;;;7.90;99.90;;;;;;5032466;28;20028;-79
2021/05/26 00:39:48;;;;;;;1.23;0.50;;;7.90;99.90;;;;;;5015107;28;20494;-78
2021/05/26 00:42:21;;;;;;;1.58;0.70;;;8.00;99.90;;;;;;5022769;28;20104;-79
2021/05/26 00:44:53;;;;;;;0.77;0.50;;;8.00;99.90;;;;;;5025880;28;20072;-78
2021/05/26 00:47:47;;;;;;;1.33;0.65;;;8.00;99.90;;;;;;5031089;28;20041;-79
2021/05/26 00:50:18;;;;;;;0.50;0.50;;;7.90;99.90;;;;;;5014098;28;20033;-78
2021/05/26 00:52:44;;;;;;;1.35;0.60;;;7.90;99.90;;;;;;5011148;28;20109;-78
2021/05/26 00:55:14;;;;;;;1.02;0.50;;;7.90;99.90;;;;;;5029062;28;20061;-78
2021/05/26 00:57:40;;;;;;;0.65;0.50;;;8.00;99.90;;;;;;5031502;28;20044;-77
2021/05/26 01:00:11;;;;;;;0.57;0.52;;;8.00;99.90;;;;;;5010180;28;20779;-77
2021/05/26 01:02:38;;;;;;;0.65;0.40;;;7.90;99.90;;;;;;5027990;28;20025;-77
2021/05/26 01:05:08;;;;;;;2.10;0.88;;;7.90;99.90;;;;;;5010991;28;20490;-77
2021/05/26 01:07:34;;;;;;;0.70;0.52;;;7.80;99.90;;;;;;5027079;28;20108;-77
2021/05/26 01:10:03;;;;;;;1.00;0.60;;;7.80;99.90;;;;;;5027515;28;20025;-77
2021/05/26 01:12:37;;;;;;;1.63;0.80;;;7.80;99.90;;;;;;5015723;28;20026;-77
2021/05/26 01:15:06;;;;;;;1.60;1.08;;;7.80;99.90;;;;;;5029963;28;20041;-77
2021/05/26 01:17:34;;;;;;;2.67;0.80;;;7.80;99.90;;;;;;5031209;28;20060;-77
2021/05/26 01:20:04;;;;;;;1.17;0.60;;;7.90;99.90;;;;;;5032417;28;20028;-77
2021/05/26 01:22:32;;;;;;;0.52;0.50;;;7.90;99.90;;;;;;5015077;28;20037;-78
2021/05/26 01:24:58;;;;;;;0.40;0.40;;;7.90;99.90;;;;;;5014849;28;20061;-78
2021/05/26 01:27:27;;;;;;;0.47;0.40;;;7.90;99.90;;;;;;5014857;28;20033;-78
2021/05/26 01:29:59;;;;;;;0.52;0.52;;;8.00;99.90;;;;;;5032437;28;20033;-77
2021/05/26 01:32:25;;;;;;;1.25;0.40;;;8.00;99.90;;;;;;5033158;28;20481;-78
2021/05/26 01:34:51;;;;;;;1.77;0.52;;;7.90;99.90;;;;;;5014479;28;20049;-78
2021/05/26 01:37:16;;;;;;;0.60;0.47;;;7.90;99.90;;;;;;5028702;28;20539;-77
2021/05/26 01:39:47;;;;;;;0.40;0.40;;;8.00;99.90;;;;;;4999661;28;20107;-78
2021/05/26 01:42:30;;;;;;;0.77;0.75;;;7.90;99.90;;;;;;5015529;28;20049;-78
2021/05/26 01:44:56;;;;;;;2.30;0.55;;;8.00;99.90;;;;;;5031798;28;20056;-78
2021/05/26 01:47:29;;;;;;;0.57;0.50;;;8.00;99.90;;;;;;5029811;28;20038;-78
2021/05/26 01:49:56;;;;;;;3.78;0.50;;;8.00;99.90;;;;;;4999472;28;20092;-78
2021/05/26 01:52:22;;;;;;;0.68;0.60;;;8.00;99.90;;;;;;5031921;28;20486;-78
2021/05/26 01:54:47;;;;;;;0.98;0.60;;;7.90;99.90;;;;;;5015012;28;20034;-78
2021/05/26 01:57:13;;;;;;;1.85;0.68;;;8.00;99.90;;;;;;5032667;28;20036;-78
2021/05/26 01:59:42;;;;;;;2.15;0.93;;;8.00;99.90;;;;;;5032040;28;20072;-78
2021/05/26 02:02:12;;;;;;;1.13;0.60;;;7.90;99.90;;;;;;5016402;28;20033;-78
2021/05/26 02:04:40;;;;;;;0.70;0.52;;;8.00;99.90;;;;;;5030310;28;20022;-78
2021/05/26 02:07:12;;;;;;;1.13;0.80;;;8.00;99.90;;;;;;4999464;28;20026;-78
2021/05/26 02:09:39;;;;;;;1.65;0.40;;;8.00;99.90;;;;;;5030862;28;20486;-78
2021/05/26 02:12:23;;;;;;;0.68;0.63;;;7.90;99.90;;;;;;5015024;28;20043;-78
2021/05/26 02:14:53;;;;;;;2.42;0.50;;;7.90;99.90;;;;;;4999899;28;20036;-78
2021/05/26 02:17:21;;;;;;;2.80;0.80;;;7.90;99.90;;;;;;5030716;28;20619;-78
2021/05/26 02:19:48;;;;;;;1.55;0.77;;;7.90;99.90;;;;;;5014951;28;20473;-78
2021/05/26 02:22:14;;;;;;;0.73;0.70;;;7.90;99.90;;;;;;5030614;28;20048;-78
2021/05/26 02:24:41;;;;;;;1.55;0.43;;;7.90;99.90;;;;;;5012958;28;20505;-78
2021/05/26 02:27:08;;;;;;;1.42;0.70;;;7.90;99.90;;;;;;5030377;28;20632;-78
2021/05/26 02:29:34;;;;;;;2.38;0.50;;;7.80;99.90;;;;;;5033357;28;20067;-78
2021/05/26 02:32:00;;;;;;;2.17;0.63;;;7.80;99.90;;;;;;5034538;28;20413;-79
2021/05/26 02:34:29;;;;;;;1.58;0.75;;;7.70;99.90;;;;;;5033042;28;20029;-78
2021/05/26 02:36:54;;;;;;;1.05;0.60;;;7.60;99.90;;;;;;5033217;28;20033;-78
2021/05/26 02:39:21;;;;;;;0.57;0.57;;;7.60;99.90;;;;;;5031956;28;20505;-78
2021/05/26 02:41:47;;;;;;;1.77;0.80;;;7.50;99.90;;;;;;5030717;28;20080;-78
2021/05/26 02:44:15;;;;;;;2.40;0.60;;;7.50;99.90;;;;;;5016485;28;20037;-78
2021/05/26 02:46:41;;;;;;;1.90;0.70;;;7.40;99.90;;;;;;5030092;28;20036;-77
2021/05/26 02:49:07;;;;;;;0.80;0.60;;;7.40;99.90;;;;;;5026791;28;20045;-78
2021/05/26 02:51:34;;;;;;;3.33;0.70;;;7.40;99.90;;;;;;5032225;28;20542;-78
2021/05/26 02:54:00;;;;;;;0.65;0.65;;;7.40;99.90;;;;;;5030217;28;20025;-78
2021/05/26 02:56:27;;;;;;;1.67;0.85;;;7.30;99.90;;;;;;5030462;28;20068;-78
2021/05/26 02:59:11;;;;;;;3.60;0.60;;;7.30;99.90;;;;;;5029310;28;20043;-78
2021/05/26 03:02:08;;;;;;;2.63;0.82;;;7.30;99.90;;;;;;5018133;28;20041;-78
2021/05/26 03:04:42;;;;;;;1.33;0.68;;;7.20;99.90;;;;;;5028708;28;20029;-78
2021/05/26 03:07:08;;;;;;;1.23;0.70;;;7.20;99.90;;;;;;5025265;28;20028;-78
2021/05/26 03:09:35;;;;;;;0.68;0.68;;;7.20;99.90;;;;;;5028812;28;20112;-78
2021/05/26 03:12:02;;;;;;;1.70;0.65;;;7.10;99.90;;;;;;5024325;28;20026;-79
2021/05/26 03:14:38;;;;;;;2.53;0.80;;;7.10;99.90;;;;;;5028692;28;20030;-78
2021/05/26 03:17:08;;;;;;;1.50;0.90;;;7.10;99.90;;;;;;5012290;28;20482;-79
2021/05/26 03:19:34;;;;;;;1.13;0.90;;;7.10;99.90;;;;;;5029165;28;20375;-78
2021/05/26 03:22:30;;;;;;;1.98;1.42;;;7.10;99.90;;;;;;5017491;28;20048;-78
2021/05/26 03:25:28;;;;;;;3.50;1.20;;;7.20;99.90;;;;;;5021547;28;20038;-79
2021/05/26 03:28:02;;;;;;;1.27;0.80;;;7.20;99.90;;;;;;5013135;28;20680;-78
2021/05/26 03:30:27;;;;;;;2.35;0.90;;;7.20;99.90;;;;;;5030057;28;20091;-78
2021/05/26 03:32:53;;;;;;;1.10;0.90;;;7.20;99.90;;;;;;5027663;28;20053;-79
2021/05/26 03:35:19;;;;;;;0.93;0.68;;;7.20;99.90;;;;;;5028208;28;20374;-78
2021/05/26 03:37:46;;;;;;;1.05;0.90;;;7.30;99.90;;;;;;5016227;28;20032;-78
2021/05/26 03:40:14;;;;;;;1.27;0.80;;;7.30;99.90;;;;;;5015625;28;20064;-79
2021/05/26 03:42:46;;;;;;;2.22;0.70;;;7.30;99.90;;;;;;5027605;28;20156;-78
2021/05/26 03:45:26;;;;;;;1.65;1.40;;;7.30;99.90;;;;;;5016133;28;20037;-79
2021/05/26 03:47:52;;;;;;;1.88;0.80;;;7.30;99.90;;;;;;5033495;28;20036;-78
2021/05/26 03:50:18;;;;;;;1.38;0.90;;;7.30;99.90;;;;;;5015867;28;20528;-78
2021/05/26 03:52:47;;;;;;;1.88;1.00;;;7.30;99.90;;;;;;5032071;28;20021;-78
2021/05/26 03:55:16;;;;;;;2.17;0.82;;;7.30;99.90;;;;;;5015086;28;20034;-79
2021/05/26 03:57:42;;;;;;;2.35;0.82;;;7.30;99.90;;;;;;5029388;28;20040;-78
2021/05/26 04:00:11;;;;;;;1.40;0.80;;;7.30;99.90;;;;;;5032164;28;20037;-78
2021/05/26 04:02:45;;;;;;;1.00;0.55;;;7.30;99.90;;;;;;5028576;28;20508;-78
2021/05/26 04:05:12;;;;;;;0.70;0.60;;;7.30;99.90;;;;;;5028303;28;20025;-79
2021/05/26 04:07:38;;;;;;;0.93;0.85;;;7.30;99.90;;;;;;5033035;28;20550;-78
2021/05/26 04:10:05;;;;;;;2.35;0.73;;;7.40;99.90;;;;;;5015546;28;20032;-78
2021/05/26 04:12:35;;;;;;;3.33;1.10;;;7.40;99.90;;;;;;5029161;28;20397;-78
2021/05/26 04:15:12;;;;;;;1.40;1.00;;;7.40;99.90;;;;;;5030061;28;20033;-78
2021/05/26 04:18:03;;;;;;;1.40;1.03;;;7.40;99.90;;;;;;5032607;28;20049;-79
2021/05/26 04:20:29;;;;;;;1.55;0.73;;;7.40;99.90;;;;;;5056905;28;20284;-79
2021/05/26 04:22:54;;;;;;;1.77;0.88;;;7.50;99.90;;;;;;5032284;28;20029;-79
2021/05/26 04:25:22;;;;;;;1.13;0.70;;;7.50;99.90;;;;;;5031513;28;20140;-78
2021/05/26 04:27:48;;;;;;;1.58;0.80;;;7.50;99.90;;;;;;5031464;28;20037;-79
2021/05/26 04:30:15;;;;;;;3.72;1.05;;;7.60;99.90;;;;;;5001494;28;20033;-78
2021/05/26 04:32:43;;;;;;;3.40;0.80;;;7.70;99.90;;;;;;5028271;28;20034;-79
2021/05/26 04:35:09;;;;;;;1.52;0.95;;;7.70;99.90;;;;;;5032549;28;20040;-78
2021/05/26 04:37:35;;;;;;;1.40;0.77;;;7.70;99.90;;;;;;5029545;28;20026;-79
2021/05/26 04:40:01;;;;;;;1.88;0.93;;;7.80;99.90;;;;;;5032896;28;20387;-78
2021/05/26 04:42:26;;;;;;;1.17;0.93;;;7.80;99.90;;;;;;5013334;28;20041;-78
2021/05/26 04:44:52;;;;;;;1.02;0.77;;;7.80;99.90;;;;;;5032527;28;20025;-78
2021/05/26 04:47:18;;;;;;;1.80;0.90;;;7.90;99.90;;;;;;5029437;28;20402;-79
2021/05/26 04:49:43;;;;;;;5.38;0.80;;;7.90;99.90;;;;;;5015087;28;20025;-79
2021/05/26 04:52:09;;;;;;;2.17;0.75;;;8.00;99.90;;;;;;5032504;28;20562;-78
2021/05/26 04:54:35;;;;;;;1.38;0.70;;;8.00;99.90;;;;;;5032385;28;20029;-79
2021/05/26 04:57:01;;;;;;;2.28;0.70;;;8.00;99.90;;;;;;5029362;28;20481;-79
2021/05/26 04:59:26;;;;;;;1.42;0.80;;;8.10;99.90;;;;;;5032095;28;20453;-78
2021/05/26 05:01:52;;;;;;;1.45;0.90;;;8.20;99.90;;;;;;5015081;28;20127;-79
2021/05/26 05:04:18;;;;;;;4.00;0.70;;;8.20;99.90;;;;;;5032818;28;20026;-79
2021/05/26 05:06:43;;;;;;;1.92;0.82;;;8.40;99.90;;;;;;5032740;28;20520;-78
2021/05/26 05:09:10;;;;;;;3.25;1.10;;;8.50;99.90;;;;;;5028162;28;20079;-79
2021/05/26 05:11:36;;;;;;;2.47;0.90;;;8.50;99.90;;;;;;5028641;28;20361;-79
2021/05/26 05:14:02;;;;;;;0.60;0.52;;;8.50;99.90;;;;;;5031460;28;20017;-79
2021/05/26 05:16:28;;;;;;;0.95;0.80;;;8.50;99.90;;;;;;5030348;28;20127;-79
2021/05/26 05:18:54;;;;;;;2.28;0.77;;;8.50;99.90;;;;;;5032240;28;20079;-79
2021/05/26 05:21:20;;;;;;;1.80;0.85;;;8.60;99.90;;;;;;5030081;28;20021;-79
2021/05/26 05:23:46;;;;;;;3.72;0.60;;;8.60;99.90;;;;;;5032311;28;20108;-79
2021/05/26 05:26:12;;;;;;;2.83;1.00;;;8.60;99.90;;;;;;5030663;28;20104;-78
2021/05/26 05:28:38;;;;;;;1.88;0.80;;;8.60;99.90;;;;;;5031455;28;20029;-79
2021/05/26 05:31:03;;;;;;;1.60;0.88;;;8.60;99.90;;;;;;5028290;28;20030;-79
2021/05/26 05:33:29;;;;;;;2.08;0.73;;;8.60;99.90;;;;;;5013785;28;20726;-78
2021/05/26 05:35:55;;;;;;;1.45;1.00;;;8.70;99.90;;;;;;5015859;28;20049;-78
2021/05/26 05:38:21;;;;;;;2.65;0.95;;;8.80;99.90;;;;;;5030863;28;20489;-79
2021/05/26 05:40:47;;;;;;;1.65;1.05;;;8.80;99.90;;;;;;5031581;28;20032;-79
2021/05/26 05:43:14;;;;;;;2.95;0.75;;;9.00;99.90;;;;;;5030740;28;20036;-79
2021/05/26 05:45:40;;;;;;;2.03;0.88;;;9.00;99.90;;;;;;5031282;28;20123;-79
2021/05/26 05:48:06;;;;;;;1.73;0.63;;;9.10;99.90;;;;;;5027924;28;20106;-79
2021/05/26 05:50:32;;;;;;;1.67;0.70;;;9.20;99.90;;;;;;5010458;28;20124;-79
2021/05/26 05:52:58;;;;;;;1.48;0.65;;;9.20;99.90;;;;;;5013919;28;20076;-79
2021/05/26 05:55:24;;;;;;;0.77;0.52;;;9.30;99.90;;;;;;5014050;28;20029;-79
2021/05/26 05:57:50;;;;;;;0.98;0.52;;;9.30;99.90;;;;;;5029554;28;20060;-79
2021/05/26 06:00:16;;;;;;;2.90;0.77;;;9.40;99.90;;;;;;4993293;28;20030;-79
2021/05/26 06:02:43;;;;;;;3.45;1.08;;;9.40;99.90;;;;;;5031134;28;20025;-79
2021/05/26 06:05:12;;;;;;;2.35;0.90;;;9.40;99.90;;;;;;5030938;28;20042;-79
2021/05/26 06:07:38;;;;;;;2.88;1.13;;;9.30;99.90;;;;;;5031482;28;20030;-79
2021/05/26 06:10:04;;;;;;;1.88;0.90;;;9.30;99.90;;;;;;5031641;28;20099;-79
2021/05/26 06:12:30;;;;;;;3.45;0.90;;;9.30;99.90;;;;;;5032181;28;20060;-78
2021/05/26 06:14:56;;;;;;;1.02;0.50;;;9.40;99.90;;;;;;5031692;28;20440;-79
2021/05/26 06:17:21;;;;;;;2.25;0.60;;;9.40;99.90;;;;;;5030160;28;20061;-79
2021/05/26 06:19:47;;;;;;;1.85;0.80;;;9.40;99.90;;;;;;5031835;28;20080;-78
2021/05/26 06:22:13;;;;;;;2.05;0.70;;;9.50;99.90;;;;;;5030988;28;20063;-79
2021/05/26 06:24:41;;;;;;;1.48;0.70;;;9.70;99.90;;;;;;5013372;28;20039;-79
2021/05/26 06:27:06;;;;;;;2.72;1.00;;;9.90;99.90;;;;;;5031285;28;20034;-79
2021/05/26 06:29:32;;;;;;;1.98;0.85;;;10.20;99.90;;;;;;5031158;28;20036;-78
2021/05/26 06:31:58;;;;;;;1.23;1.10;;;10.50;99.90;;;;;;5031221;28;20076;-79
2021/05/26 06:34:24;;;;;;;1.98;0.77;;;10.80;99.90;;;;;;5020171;28;20449;-78
2021/05/26 06:36:49;;;;;;;2.28;0.70;;;11.40;99.90;;;;;;5030953;28;20036;-79
2021/05/26 06:39:15;;;;;;;0.80;0.45;;;11.80;99.90;;;;;;5013554;28;20049;-79
2021/05/26 06:41:41;;;;;;;2.47;0.70;;;12.10;99.90;;;;;;5029985;28;20548;-79
2021/05/26 06:44:07;;;;;;;0.88;0.43;;;12.20;99.90;;;;;;5013442;28;20034;-79
2021/05/26 06:46:32;;;;;;;2.65;0.60;;;12.20;99.90;;;;;;5030300;28;20025;-79
2021/05/26 06:48:58;;;;;;;1.38;0.73;;;12.30;99.90;;;;;;5028734;28;20180;-78
2021/05/26 06:51:24;;;;;;;1.98;0.90;;;12.40;99.90;;;;;;5011304;28;20064;-79
2021/05/26 06:53:49;;;;;;;2.63;0.80;;;12.50;99.90;;;;;;5030012;28;20028;-79
2021/05/26 06:56:15;;;;;;;1.13;0.70;;;12.80;99.90;;;;;;5030274;28;20044;-79
2021/05/26 06:58:41;;;;;;;1.35;0.50;;;13.20;99.90;;;;;;5029541;28;20029;-79
2021/05/26 07:01:07;;;;;;;1.35;0.52;;;13.70;99.90;;;;;;5030205;28;20171;-80
2021/05/26 07:03:33;;;;;;;0.90;0.50;;;14.40;99.90;;;;;;5031192;28;20067;-79
2021/05/26 07:05:58;;;;;;;3.17;0.60;;;14.90;99.90;;;;;;5030720;28;20394;-79
2021/05/26 07:08:24;;;;;;;0.60;0.50;;;15.20;99.90;;;;;;5028776;28;20091;-80
2021/05/26 07:10:50;;;;;;;1.30;0.50;;;15.40;99.90;;;;;;5032318;28;20025;-80
2021/05/26 07:13:16;;;;;;;1.23;0.55;;;15.60;99.90;;;;;;5025569;28;20484;-79
2021/05/26 07:15:42;;;;;;;1.42;0.68;;;15.50;99.90;;;;;;5015720;28;20057;-80
2021/05/26 07:18:09;;;;;;;3.85;1.02;;;15.30;99.90;;;;;;5029573;28;20021;-80
2021/05/26 07:20:35;;;;;;;1.13;0.40;;;15.00;99.90;;;;;;5028480;28;20927;-79
2021/05/26 07:23:01;;;;;;;1.65;0.65;;;14.50;99.90;;;;;;5014195;28;20401;-79
2021/05/26 07:25:27;;;;;;;2.63;0.70;;;14.00;99.90;;;;;;5031719;28;20044;-79
2021/05/26 07:27:53;;;;;;;1.92;0.47;;;13.60;99.90;;;;;;5029848;28;20037;-78
2021/05/26 07:30:21;;;;;;;2.88;0.70;;;13.10;99.90;;;;;;5030956;28;20038;-78
2021/05/26 07:32:48;;;;;;;1.52;0.60;;;12.70;99.90;;;;;;5031187;28;20057;-78
2021/05/26 07:35:15;;;;;;;0.85;0.45;;;12.40;99.90;;;;;;5029463;28;20504;-78
2021/05/26 07:37:41;;;;;;;1.20;0.47;;;12.20;99.90;;;;;;5023605;28;20034;-78
2021/05/26 07:40:09;;;;;;;2.28;0.45;;;11.90;99.90;;;;;;5030269;28;20037;-78
2021/05/26 07:42:34;;;;;;;1.30;0.50;;;11.70;99.90;;;;;;5015155;28;20127;-78
2021/05/26 07:45:00;;;;;;;1.95;0.85;;;11.50;99.90;;;;;;5016302;28;20080;-78
2021/05/26 07:47:26;;;;;;;1.63;0.60;;;11.50;99.90;;;;;;5025883;28;20037;-78
2021/05/26 07:49:52;;;;;;;2.78;0.60;;;11.40;99.90;;;;;;5027000;28;20037;-79
2021/05/26 07:52:21;;;;;;;3.72;0.70;;;11.30;99.90;;;;;;5027522;28;20033;-78
2021/05/26 07:54:50;;;;;;;0.95;0.47;;;11.20;99.90;;;;;;5025487;28;20045;-78
2021/05/26 07:57:16;;;;;;;1.33;0.60;;;11.20;99.90;;;;;;5023877;28;20037;-78
2021/05/26 07:59:44;;;;;;;2.78;0.68;;;11.10;99.90;;;;;;5025772;28;20730;-78
2021/05/26 08:02:11;;;;;;;2.65;0.50;;;11.10;99.90;;;;;;5012633;28;20033;-78
2021/05/26 08:04:37;;;;;;;2.40;0.50;;;11.20;99.90;;;;;;5021593;28;20033;-79
2021/05/26 08:07:03;;;;;;;4.18;0.75;;;11.10;99.90;;;;;;5022146;28;20041;-79
2021/05/26 08:09:28;;;;;;;0.55;0.55;;;11.10;99.90;;;;;;5017927;28;20030;-79
2021/05/26 08:11:54;;;;;;;1.55;0.60;;;11.20;99.90;;;;;;5023271;28;20045;-79
2021/05/26 08:14:20;;;;;;;0.80;0.60;;;11.20;99.90;;;;;;5027167;28;20045;-79
2021/05/26 08:16:45;;;;;;;1.35;0.60;;;11.30;99.90;;;;;;5026756;28;20029;-79
2021/05/26 08:19:11;;;;;;;0.55;0.55;;;11.30;99.90;;;;;;5024046;28;20478;-79
2021/05/26 08:21:39;;;;;;;0.75;0.55;;;11.40;99.90;;;;;;5019758;28;20392;-78
2021/05/26 08:24:06;;;;;;;0.88;0.70;;;11.50;99.90;;;;;;5028040;28;20073;-78
2021/05/26 08:26:32;;;;;;;1.60;0.63;;;11.60;99.90;;;;;;5024736;28;20034;-78
2021/05/26 08:28:58;;;;;;;1.35;0.57;;;11.80;99.90;;;;;;5010925;28;20041;-79
2021/05/26 08:31:24;;;;;;;0.93;0.73;;;11.80;99.90;;;;;;5023620;28;20446;-79
2021/05/26 08:33:50;;;;;;;0.93;0.60;;;11.90;99.90;;;;;;5016693;28;20045;-78
2021/05/26 08:36:16;;;;;;;2.15;0.60;;;11.90;99.90;;;;;;5025347;28;20041;-78
2021/05/26 08:38:43;;;;;;;0.93;0.63;;;11.90;99.90;;;;;;5023832;28;20080;-78
2021/05/26 08:41:10;;;;;;;1.67;0.82;;;11.80;99.90;;;;;;5020443;28;20060;-79
2021/05/26 08:43:38;;;;;;;0.52;0.30;;;11.80;99.90;;;;;;5026082;28;20406;-78
2021/05/26 08:46:04;;;;;;;1.23;0.70;;;11.80;99.90;;;;;;5030328;28;20048;-78
2021/05/26 08:48:32;;;;;;;3.28;0.75;;;11.90;99.90;;;;;;5013418;28;20103;-78
2021/05/26 08:50:58;;;;;;;1.90;0.70;;;11.80;99.90;;;;;;5030195;28;20051;-79
2021/05/26 08:53:25;;;;;;;0.98;0.50;;;11.70;99.90;;;;;;5028079;28;20041;-79
2021/05/26 08:55:51;;;;;;;1.85;0.70;;;11.70;99.90;;;;;;5026520;28;20042;-78
2021/05/26 08:58:17;;;;;;;3.05;0.68;;;11.70;99.90;;;;;;4997215;28;20120;-79
2021/05/26 09:00:43;;;;;;;0.88;0.50;;;11.70;99.90;;;;;;5031793;28;20096;-79
2021/05/26 09:03:09;;;;;;;1.38;0.60;;;11.70;99.90;;;;;;5032030;28;20046;-78
2021/05/26 09:05:35;;;;;;;0.75;0.50;;;11.70;99.90;;;;;;5030011;28;20064;-78
2021/05/26 09:08:18;;;;;;;1.17;0.43;;;11.80;99.90;;;;;;5032092;28;20079;-78
2021/05/26 09:10:54;;;;;;;0.57;0.40;;;11.80;99.90;;;;;;5033406;28;20399;-78
2021/05/26 09:13:35;;;;;;;0.82;0.60;;;12.00;99.90;;;;;;5032857;28;20061;-78
2021/05/26 09:16:08;;;;;;;0.65;0.40;;;12.20;99.90;;;;;;5029866;28;20042;-78
2021/05/26 09:18:58;;;;;;;0.70;0.45;;;12.30;99.90;;;;;;5032557;28;20033;-78
2021/05/26 09:21:40;;;;;;;0.47;0.45;;;12.40;99.90;;;;;;5028246;28;20128;-78
2021/05/26 09:24:21;;;;;;;1.75;0.55;;;12.40;99.90;;;;;;5019760;28;20078;-78
2021/05/26 09:26:51;;;;;;;2.35;0.60;;;12.40;99.90;;;;;;5024957;28;20575;-77
2021/05/26 09:29:30;;;;;;;1.75;0.73;;;12.20;99.90;;;;;;5021586;28;20046;-77
2021/05/26 09:32:14;;;;;;;0.70;0.45;;;12.10;99.90;;;;;;5024404;28;20102;-78
2021/05/26 09:34:42;;;;;;;3.70;0.60;;;12.00;99.90;;;;;;5028313;28;20026;-78
2021/05/26 09:37:19;;;;;;;0.47;0.43;;;11.90;99.90;;;;;;5031554;28;20075;-78
2021/05/26 09:40:06;;;;;;;0.60;0.40;;;11.80;99.90;;;;;;5032468;28;20370;-78
2021/05/26 09:42:42;;;;;;;0.65;0.50;;;11.60;99.90;;;;;;5030726;28;20084;-78
2021/05/26 09:45:15;;;;;;;1.95;0.68;;;11.50;99.90;;;;;;5023891;28;20034;-78
2021/05/26 09:47:52;;;;;;;0.40;0.40;;;11.30;99.90;;;;;;5029167;28;20046;-78
2021/05/26 09:50:34;;;;;;;0.45;0.45;;;11.20;99.90;;;;;;5027156;28;20408;-78
2021/05/26 09:53:08;;;;;;;0.95;0.68;;;11.10;99.90;;;;;;5025714;28;20044;-78
2021/05/26 09:55:37;;;;;;;1.75;0.60;;;11.00;99.90;;;;;;5027102;28;20047;-78
2021/05/26 09:58:05;;;;;;;1.02;0.50;;;10.90;99.90;;;;;;5028149;28;20195;-78
2021/05/26 10:00:32;;;;;;;3.58;0.50;;;10.90;99.90;;;;;;5032250;28;20109;-77
2021/05/26 10:02:58;;;;;;;0.30;0.30;;;11.00;99.90;;;;;;5030988;28;20029;-78
2021/05/26 10:05:25;;;;;;;0.70;0.38;;;11.00;99.90;;;;;;5027797;28;20025;-79
2021/05/26 10:08:13;;;;;;;2.17;0.77;;;10.90;99.90;;;;;;5029348;28;20148;-78
2021/05/26 10:10:48;;;;;;;0.70;0.40;;;11.00;99.90;;;;;;5027137;28;20025;-78
2021/05/26 10:13:20;;;;;;;0.50;0.30;;;11.00;99.90;;;;;;5030602;28;20028;-79
2021/05/26 10:15:49;;;;;;;0.35;0.35;;;11.10;99.90;;;;;;5015765;28;20039;-79
2021/05/26 10:18:16;;;;;;;1.33;0.60;;;11.30;99.90;;;;;;5023688;28;20051;-79
2021/05/26 10:20:45;;;;;;;1.00;0.47;;;11.50;99.90;;;;;;5011303;28;20029;-78
2021/05/26 10:23:19;;;;;;;1.42;0.57;;;11.70;99.90;;;;;;5030675;28;20037;-79
2021/05/26 10:25:46;;;;;;;0.17;0.15;;;11.90;99.90;;;;;;5029329;28;20021;-78
2021/05/26 10:28:30;;;;;;;0.60;0.40;;;11.90;99.90;;;;;;5030946;28;20030;-79
2021/05/26 10:30:56;;;;;;;1.65;0.30;;;11.90;99.90;;;;;;5029936;28;20037;-79
2021/05/26 10:33:42;;;;;;;0.55;0.50;;;11.90;99.90;;;;;;5022737;28;20125;-78
2021/05/26 10:36:10;;;;;;;1.40;0.30;;;11.80;99.90;;;;;;5031197;28;20033;-79
2021/05/26 10:38:59;;;;;;;2.65;0.68;;;11.70;99.90;;;;;;5028001;28;20033;-79
2021/05/26 10:41:46;;;;;;;1.70;0.28;;;11.50;99.90;;;;;;5024233;28;20033;-78
2021/05/26 10:44:12;;;;;;;0.75;0.30;;;11.40;99.90;;;;;;5010062;28;20049;-79
2021/05/26 10:46:38;;;;;;;0.60;0.30;;;11.50;99.90;;;;;;5030088;28;20033;-79
2021/05/26 10:49:09;;;;;;;0.85;0.50;;;11.70;99.90;;;;;;5028813;28;20053;-78
2021/05/26 10:51:53;;;;;;;1.67;0.60;;;12.00;99.90;;;;;;5029017;28;20033;-78
2021/05/26 10:54:37;;;;;;;0.65;0.30;;;12.20;99.90;;;;;;5010321;28;20018;-78
2021/05/26 10:57:03;;;;;;;0.50;0.30;;;12.30;99.90;;;;;;5023683;28;20486;-78
2021/05/26 10:59:29;;;;;;;0.35;0.32;;;12.30;99.90;;;;;;5029049;28;20079;-78
2021/05/26 11:02:13;;;;;;;0.50;0.28;;;12.20;99.90;;;;;;5027595;28;20141;-78
2021/05/26 11:04:40;;;;;;;0.20;0.20;;;12.10;99.90;;;;;;5029065;28;20105;-78
2021/05/26 11:07:20;;;;;;;0.63;0.60;;;12.30;99.90;;;;;;5027433;28;20025;-78
2021/05/26 11:10:06;;;;;;;0.85;0.45;;;12.50;99.90;;;;;;5010329;28;20030;-78
2021/05/26 11:12:57;;;;;;;0.68;0.63;;;12.90;99.90;;;;;;5026040;28;20061;-78
2021/05/26 11:15:42;;;;;;;3.85;0.40;;;13.30;99.90;;;;;;5027967;28;20030;-77
2021/05/26 11:18:29;;;;;;;0.80;0.28;;;13.60;99.90;;;;;;5024898;28;20044;-77
2021/05/26 11:20:55;;;;;;;0.20;0.20;;;14.10;99.90;;;;;;5026508;28;20044;-78
2021/05/26 11:23:22;;;;;;;2.05;0.47;;;14.30;99.90;;;;;;5023289;28;20041;-78
2021/05/26 11:25:55;;;;;;;0.93;0.22;;;14.30;99.90;;;;;;5026232;28;20029;-78
2021/05/26 11:28:35;;;;;;;0.20;0.20;;;14.30;99.90;;;;;;5026163;28;20030;-78
2021/05/26 11:31:02;;;;;;;1.25;0.30;;;14.30;99.90;;;;;;5029041;28;20026;-78
2021/05/26 11:33:27;;;;;;;0.50;0.30;;;14.30;99.90;;;;;;5027410;28;20033;-78
2021/05/26 11:35:58;;;;;;;0.25;0.25;;;14.30;99.90;;;;;;5026892;28;20473;-77
2021/05/26 11:38:25;;;;;;;1.50;0.28;;;14.20;99.90;;;;;;5024054;28;20494;-77
2021/05/26 11:40:52;;;;;;;0.43;0.30;;;13.90;99.90;;;;;;5024562;28;20417;-78
2021/05/26 11:43:21;;;;;;;0.63;0.52;;;13.70;99.90;;;;;;5021738;28;20092;-77
2021/05/26 11:45:49;;;;;;;0.65;0.30;;;13.60;99.90;;;;;;5022784;28;20096;-78
2021/05/26 11:48:20;;;;;;;1.13;0.30;;;13.30;99.90;;;;;;5021239;28;20627;-78
2021/05/26 11:50:47;;;;;;;1.05;0.20;;;13.10;99.90;;;;;;5017036;28;20117;-78
2021/05/26 11:53:14;;;;;;;0.73;0.30;;;12.90;99.90;;;;;;5008780;28;20502;-77
2021/05/26 11:55:44;;;;;;;0.28;0.28;;;12.70;99.90;;;;;;5025806;28;20030;-77
2021/05/26 11:58:10;;;;;;;0.57;0.40;;;12.60;99.90;;;;;;5027421;28;20053;-78
2021/05/26 12:00:37;;;;;;;1.45;0.25;;;12.50;99.90;;;;;;5030643;28;20488;-77
2021/05/26 12:03:09;;;;;;;0.75;0.30;;;12.40;99.90;;;;;;5025495;28;20037;-78
2021/05/26 12:05:53;;;;;;;0.52;0.32;;;12.30;99.90;;;;;;5022304;28;20033;-77
2021/05/26 12:08:18;;;;;;;0.80;0.30;;;12.30;99.90;;;;;;5027244;28;20029;-77
2021/05/26 12:10:47;;;;;;;0.88;0.20;;;12.30;99.90;;;;;;5027740;28;20040;-77
2021/05/26 12:13:16;;;;;;;0.68;0.43;;;12.20;99.90;;;;;;5009317;28;20064;-77
2021/05/26 12:15:42;;;;;;;0.50;0.20;;;12.20;99.90;;;;;;5026525;28;20180;-77
2021/05/26 12:18:08;;;;;;;1.30;0.20;;;12.20;99.90;;;;;;5026498;28;20116;-77
2021/05/26 12:20:34;;;;;;;0.55;0.32;;;12.30;99.90;;;;;;5027460;28;20040;-77
2021/05/26 12:23:00;;;;;;;0.40;0.40;;;12.60;99.90;;;;;;5028115;28;20033;-77
2021/05/26 12:25:41;;;;;;;0.43;0.30;;;12.90;99.90;;;;;;5027370;28;20033;-77
2021/05/26 12:28:18;;;;;;;1.45;0.30;;;13.30;99.90;;;;;;5026340;28;20057;-77
2021/05/26 12:30:44;;;;;;;0.10;0.10;;;13.80;99.90;;;;;;5028150;28;20045;-77
2021/05/26 12:33:21;;;;;;;0.25;0.25;;;14.30;99.90;;;;;;5028598;28;20466;-78
2021/05/26 12:36:08;;;;;;;0.20;0.20;;;14.50;99.90;;;;;;5028010;28;20478;-77
2021/05/26 12:38:36;;;;;;;0.40;0.20;;;14.80;99.90;;;;;;5027956;28;20642;-78
2021/05/26 12:41:20;;;;;;;0.40;0.20;;;14.90;99.90;;;;;;5030089;28;20038;-77
2021/05/26 12:43:46;;;;;;;0.30;0.30;;;14.90;99.90;;;;;;5026509;28;20025;-78
2021/05/26 12:46:12;;;;;;;0.25;0.20;;;14.70;99.90;;;;;;5026665;28;20083;-78
2021/05/26 12:48:37;;;;;;;0.20;0.17;;;14.60;99.90;;;;;;5029863;28;20034;-77
2021/05/26 12:51:18;;;;;;;1.10;0.10;;;14.60;99.90;;;;;;5028631;28;20107;-77
2021/05/26 12:53:44;;;;;;;0.30;0.20;;;14.60;99.90;;;;;;5029068;28;20044;-78
2021/05/26 12:56:26;;;;;;;1.73;0.30;;;14.60;99.90;;;;;;5028232;28;20025;-78
2021/05/26 12:58:51;;;;;;;0.30;0.28;;;14.40;99.90;;;;;;5010963;28;20083;-78
2021/05/26 13:01:17;;;;;;;0.20;0.20;;;14.30;99.90;;;;;;5030088;28;20033;-78
2021/05/26 13:03:44;;;;;;;0.10;0.10;;;14.50;99.90;;;;;;5028428;28;20037;-78